createdAt,value
2018-09-03T00:03:04.683Z,21.40
2018-09-03T00:05:39.805Z,21.30
2018-09-03T00:08:14.838Z,21.30
2018-09-03T00:13:25.053Z,21.30
2018-09-03T00:18:34.889Z,21.30
2018-09-03T00:26:19.584Z,21.20
2018-09-03T00:42:15.676Z,21.20
2018-09-03T00:44:56.196Z,21.20
2018-09-03T00:47:31.254Z,21.20
2018-09-03T00:50:06.328Z,21.20
2018-09-03T00:52:41.389Z,21.20
2018-09-03T01:00:28.064Z,21.20
2018-09-03T01:03:03.225Z,21.20
2018-09-03T01:08:13.595Z,21.20
2018-09-03T01:13:23.495Z,21.10
2018-09-03T01:15:58.618Z,21.20
2018-09-03T01:18:37.999Z,21.10
2018-09-03T01:23:48.116Z,21.20
2018-09-03T01:28:58.276Z,21.20
2018-09-03T01:39:17.570Z,21.10
2018-09-03T01:44:27.484Z,21.10
2018-09-03T01:49:37.408Z,21.10
2018-09-03T01:54:47.641Z,21.10
2018-09-03T01:57:22.961Z,21.10
2018-09-03T01:59:58.161Z,21.10
2018-09-03T02:05:08.022Z,21.00
2018-09-03T02:07:43.104Z,21.00
2018-09-03T02:12:53.053Z,21.00
2018-09-03T02:18:02.933Z,21.00
2018-09-03T02:20:37.981Z,21.00
2018-09-03T02:25:47.850Z,21.00
2018-09-03T02:33:32.766Z,21.00
2018-09-03T02:36:07.846Z,21.00
2018-09-03T02:38:42.905Z,20.90
2018-09-03T02:43:52.792Z,21.00
2018-09-03T02:49:02.599Z,20.90
2018-09-03T02:51:38.069Z,20.90
2018-09-03T02:54:13.075Z,20.90
2018-09-03T02:56:48.105Z,20.90
2018-09-03T02:59:23.220Z,20.90
2018-09-03T03:09:42.744Z,20.90
2018-09-03T03:25:18.467Z,20.90
2018-09-03T03:30:28.554Z,20.90
2018-09-03T03:33:03.605Z,20.90
2018-09-03T03:35:38.816Z,20.80
2018-09-03T03:38:13.903Z,20.80
2018-09-03T03:40:49.025Z,20.90
2018-09-03T03:43:24.169Z,20.80
2018-09-03T03:56:18.791Z,20.80
2018-09-03T04:04:03.393Z,20.80
2018-09-03T04:09:13.224Z,20.80
2018-09-03T04:24:42.527Z,20.70
2018-09-03T04:27:17.594Z,20.70
2018-09-03T04:29:52.632Z,20.80
2018-09-03T04:35:02.525Z,20.70
2018-09-03T04:42:47.267Z,20.70
2018-09-03T04:47:57.150Z,20.70
2018-09-03T04:50:32.193Z,20.70
2018-09-03T04:53:07.547Z,20.70
2018-09-03T04:58:18.282Z,20.70
2018-09-03T05:03:28.182Z,20.70
2018-09-03T05:08:38.317Z,20.70
2018-09-03T05:13:48.082Z,20.70
2018-09-03T05:16:23.193Z,20.70
2018-09-03T05:18:58.309Z,20.70
2018-09-03T05:21:33.405Z,20.70
2018-09-03T05:26:43.871Z,20.60
2018-09-03T05:29:18.908Z,20.70
2018-09-03T05:31:53.959Z,20.60
2018-09-03T05:34:29.043Z,20.70
2018-09-03T05:37:04.354Z,20.70
2018-09-03T05:39:39.429Z,20.60
2018-09-03T05:42:14.501Z,20.70
2018-09-03T05:44:49.593Z,20.60
2018-09-03T05:47:24.740Z,20.60
2018-09-03T05:49:59.798Z,20.60
2018-09-03T05:52:34.897Z,20.60
2018-09-03T05:55:10.046Z,20.60
2018-09-03T05:57:45.138Z,20.60
2018-09-03T06:02:55.090Z,20.60
2018-09-03T06:08:05.481Z,20.60
2018-09-03T06:10:40.756Z,20.60
2018-09-03T06:13:15.875Z,20.60
2018-09-03T06:18:25.749Z,20.60
2018-09-03T06:21:00.892Z,20.60
2018-09-03T06:23:35.992Z,20.60
2018-09-03T06:26:11.170Z,20.60
2018-09-03T06:36:30.747Z,20.60
2018-09-03T06:46:51.249Z,20.60
2018-09-03T06:54:35.894Z,20.60
2018-09-03T06:59:45.809Z,20.50
2018-09-03T07:02:20.877Z,20.50
2018-09-03T07:04:55.978Z,20.60
2018-09-03T07:07:31.050Z,20.60
2018-09-03T07:15:16.729Z,20.50
2018-09-03T07:17:51.790Z,20.60
2018-09-03T07:20:26.886Z,20.50
2018-09-03T07:23:02.130Z,20.60
2018-09-03T07:28:11.937Z,20.60
2018-09-03T07:33:21.813Z,20.50
2018-09-03T07:41:06.552Z,20.50
2018-09-03T07:46:16.472Z,20.50
2018-09-03T07:48:51.534Z,20.50
2018-09-03T08:01:45.801Z,20.50
2018-09-03T08:06:55.741Z,20.60
2018-09-03T08:09:30.825Z,20.60
2018-09-03T08:12:06.775Z,20.50
2018-09-03T08:17:16.538Z,20.60
2018-09-03T08:25:01.042Z,20.60
2018-09-03T08:30:11.270Z,20.60
2018-09-03T08:35:21.545Z,20.60
2018-09-03T08:40:31.448Z,20.60
2018-09-03T08:43:06.877Z,20.60
2018-09-03T08:45:42.064Z,20.50
2018-09-03T08:53:26.770Z,20.50
2018-09-03T08:58:36.616Z,20.50
2018-09-03T09:01:11.761Z,20.50
2018-09-03T09:03:46.826Z,20.50
2018-09-03T09:06:21.885Z,20.60
2018-09-03T09:16:41.175Z,20.60
2018-09-03T09:24:25.945Z,20.60
2018-09-03T09:29:35.991Z,20.60
2018-09-03T09:34:46.305Z,20.70
2018-09-03T09:42:30.838Z,20.70
2018-09-03T09:50:15.255Z,20.70
2018-09-03T09:55:25.397Z,20.70
2018-09-03T10:16:10.360Z,20.90
2018-09-03T10:18:45.509Z,20.90
2018-09-03T10:21:20.600Z,21.00
2018-09-03T10:29:06.058Z,21.00
2018-09-03T10:31:41.184Z,21.00
2018-09-03T10:34:16.297Z,21.00
2018-09-03T10:36:51.531Z,21.10
2018-09-03T10:39:26.750Z,21.10
2018-09-03T10:44:36.790Z,21.10
2018-09-03T10:47:11.971Z,21.20
2018-09-03T10:49:46.952Z,21.20
2018-09-03T10:52:22.041Z,21.30
2018-09-03T11:00:06.864Z,21.40
2018-09-03T11:05:16.749Z,21.50
2018-09-03T11:07:51.812Z,21.50
2018-09-03T11:13:01.691Z,21.60
2018-09-03T11:20:46.201Z,21.70
2018-09-03T11:25:56.104Z,21.70
2018-09-03T11:33:40.621Z,21.80
2018-09-03T11:46:35.842Z,21.80
2018-09-03T11:51:45.733Z,21.90
2018-09-03T11:56:56.005Z,21.90
2018-09-03T12:04:41.069Z,21.90
2018-09-03T12:09:50.993Z,22.00
2018-09-03T12:17:39.693Z,22.00
2018-09-03T12:20:14.767Z,22.00
2018-09-03T12:22:49.844Z,22.00
2018-09-03T12:27:59.684Z,22.00
2018-09-03T12:33:09.529Z,22.00
2018-09-03T12:35:44.633Z,22.00
2018-09-03T12:40:54.625Z,22.00
2018-09-03T12:48:40.709Z,22.10
2018-09-03T12:53:50.971Z,22.00
2018-09-03T13:06:45.762Z,22.10
2018-09-03T13:11:55.958Z,22.10
2018-09-03T13:24:50.841Z,22.10
2018-09-03T13:30:01.040Z,22.10
2018-09-03T13:37:45.831Z,22.10
2018-09-03T13:42:55.512Z,22.20
2018-09-03T13:45:30.582Z,22.10
2018-09-03T13:50:40.373Z,22.20
2018-09-03T13:55:50.284Z,22.20
2018-09-03T14:03:35.456Z,22.20
2018-09-03T14:13:55.021Z,22.20
2018-09-03T14:21:39.917Z,22.20
2018-09-03T14:26:49.808Z,22.30
2018-09-03T14:34:34.446Z,22.20
2018-09-03T14:39:44.917Z,22.20
2018-09-03T14:44:55.129Z,22.30
2018-09-03T14:50:05.357Z,22.30
2018-09-03T14:55:15.252Z,22.30
2018-09-03T15:03:00.478Z,22.30
2018-09-03T15:08:10.489Z,22.30
2018-09-03T15:13:20.323Z,22.30
2018-09-03T15:21:04.942Z,22.30
2018-09-03T15:28:49.679Z,22.30
2018-09-03T15:33:59.368Z,22.30
2018-09-03T15:36:34.626Z,22.30
2018-09-03T15:54:40.520Z,22.30
2018-09-03T15:57:15.644Z,22.40
2018-09-03T15:59:50.702Z,22.40
2018-09-03T16:02:25.883Z,22.30
2018-09-03T16:05:00.968Z,22.30
2018-09-03T16:20:30.208Z,22.30
2018-09-03T16:25:40.484Z,22.30
2018-09-03T16:30:50.363Z,22.30
2018-09-03T16:33:26.881Z,22.30
2018-09-03T16:38:37.199Z,22.30
2018-09-03T16:46:22.192Z,22.30
2018-09-03T16:51:32.092Z,22.30
2018-09-03T16:56:41.917Z,22.30
2018-09-03T16:59:17.026Z,22.30
2018-09-03T17:04:26.839Z,22.30
2018-09-03T17:07:01.964Z,22.30
2018-09-03T17:09:37.010Z,22.30
2018-09-03T17:12:12.169Z,22.20
2018-09-03T17:14:47.305Z,22.30
2018-09-03T17:17:22.687Z,22.20
2018-09-03T17:19:57.736Z,22.30
2018-09-03T17:22:32.828Z,22.30
2018-09-03T17:25:07.931Z,22.20
2018-09-03T17:27:43.095Z,22.20
2018-09-03T17:38:09.777Z,22.20
2018-09-03T17:48:29.352Z,22.20
2018-09-03T17:51:04.716Z,22.20
2018-09-03T18:11:43.973Z,22.20
2018-09-03T18:16:53.945Z,22.20
2018-09-03T18:19:29.029Z,22.20
2018-09-03T18:22:04.393Z,22.20
2018-09-03T18:29:49.151Z,22.10
2018-09-03T18:37:33.685Z,22.10
2018-09-03T18:42:43.565Z,22.10
2018-09-03T18:45:18.605Z,22.00
2018-09-03T18:47:53.711Z,22.00
2018-09-03T18:50:28.924Z,22.00
2018-09-03T18:53:04.016Z,22.00
2018-09-03T18:55:39.820Z,22.00
2018-09-03T18:58:14.771Z,22.00
2018-09-03T19:03:24.600Z,22.00
2018-09-03T19:05:59.708Z,22.00
2018-09-03T19:11:09.573Z,22.00
2018-09-03T19:13:44.684Z,22.00
2018-09-03T19:16:19.769Z,22.00
2018-09-03T19:21:29.634Z,21.90
2018-09-03T19:24:04.698Z,21.90
2018-09-03T19:34:23.978Z,21.90
2018-09-03T19:42:08.694Z,21.80
2018-09-03T19:47:18.496Z,21.90
2018-09-03T19:49:53.610Z,21.80
2018-09-03T19:55:03.496Z,21.80
2018-09-03T20:00:13.379Z,21.80
2018-09-03T20:02:48.423Z,21.80
2018-09-03T20:05:23.489Z,21.80
2018-09-03T20:07:58.587Z,21.80
2018-09-03T20:13:08.301Z,21.80
2018-09-03T20:18:18.486Z,21.80
2018-09-03T20:28:37.813Z,21.80
2018-09-03T20:31:13.096Z,21.70
2018-09-03T20:33:48.144Z,21.80
2018-09-03T20:38:58.050Z,21.70
2018-09-03T20:44:08.031Z,21.70
2018-09-03T20:51:52.747Z,21.70
2018-09-03T20:57:02.665Z,21.70
2018-09-03T21:04:47.378Z,21.60
2018-09-03T21:09:57.033Z,21.70
2018-09-03T21:17:41.566Z,21.60
2018-09-03T21:25:26.125Z,21.60
2018-09-03T21:30:36.087Z,21.60
2018-09-03T21:33:11.113Z,21.60
2018-09-03T21:38:21.011Z,21.60
2018-09-03T21:43:31.157Z,21.60
2018-09-03T21:51:15.988Z,21.50
2018-09-03T21:56:25.915Z,21.50
2018-09-03T22:11:55.001Z,21.50
2018-09-03T22:19:39.876Z,21.50
2018-09-03T22:24:49.905Z,21.50
2018-09-03T22:29:59.876Z,21.40
2018-09-03T22:35:09.647Z,21.50
2018-09-03T22:37:44.700Z,21.40
2018-09-03T22:40:19.792Z,21.40
2018-09-03T22:42:54.828Z,21.40
2018-09-03T22:45:29.968Z,21.40
2018-09-03T22:48:05.121Z,21.40
2018-09-03T22:50:40.378Z,21.40
2018-09-03T22:53:15.666Z,21.40
2018-09-03T22:55:50.724Z,21.40
2018-09-03T22:58:25.796Z,21.40
2018-09-03T23:01:00.844Z,21.40
2018-09-03T23:03:35.986Z,21.40
2018-09-03T23:06:11.055Z,21.40
2018-09-03T23:08:46.106Z,21.40
2018-09-03T23:11:21.187Z,21.30
2018-09-03T23:13:56.242Z,21.40
2018-09-03T23:19:06.501Z,21.30
2018-09-03T23:24:16.422Z,21.30
2018-09-03T23:26:51.477Z,21.30
2018-09-03T23:29:26.537Z,21.30
2018-09-03T23:32:01.587Z,21.30
2018-09-03T23:34:36.692Z,21.30
2018-09-03T23:50:05.776Z,21.30
2018-09-03T23:57:50.694Z,21.20
